Time;durP1;ratioP1;P1;durP2;ratioP2;P2;SDS_P1;SDS_P2;PMS_P1;PMS_P2;Temp;Humidity;BMP_temperature;BMP_pressure;BME280_temperature;BME280_humidity;BME280_pressure;Samples;Min_cycle;Max_cycle;Signal;HPM_P1;HPM_P2
2021/12/10 00:01:32;;;;;;;10.37;5.57;;;;;;;;;;5001852;28;20200;-78
2021/12/10 00:04:00;;;;;;;12.00;5.43;;;;;;;;;;5006253;28;20722;-77
2021/12/10 00:06:32;;;;;;;9.90;5.00;;;;;;;;;;5002491;28;20654;-77
2021/12/10 00:09:00;;;;;;;10.00;4.70;;;;;;;;;;5002785;28;20266;-78
2021/12/10 00:11:28;;;;;;;9.80;5.27;;;;;;;;;;5001478;28;20303;-78
2021/12/10 00:13:56;;;;;;;12.03;5.00;;;;;;;;;;5002734;28;20557;-76
2021/12/10 00:16:24;;;;;;;8.73;4.77;;;;;;;;;;5005089;28;20236;-77
2021/12/10 00:18:55;;;;;;;11.50;5.30;;;;;;;;;;5005049;28;20642;-78
2021/12/10 00:21:22;;;;;;;11.53;4.70;;;;;;;;;;5002547;28;20283;-78
2021/12/10 00:23:51;;;;;;;8.23;4.33;;;;;;;;;;5003461;28;20280;-78
2021/12/10 00:26:20;;;;;;;10.77;5.00;;;;;;;;;;5004319;28;20201;-78
2021/12/10 00:28:48;;;;;;;8.10;4.27;;;;;;;;;;5002181;28;20315;-78
2021/12/10 00:31:32;;;;;;;10.67;4.57;;;;;;;;;;5002510;28;20308;-78
2021/12/10 00:34:02;;;;;;;13.07;4.70;;;;;;;;;;5000083;28;20222;-78
2021/12/10 00:36:30;;;;;;;10.50;4.90;;;;;;;;;;4998475;28;20228;-78
2021/12/10 00:39:01;;;;;;;10.77;5.00;;;;;;;;;;5005734;28;20262;-79
2021/12/10 00:41:29;;;;;;;11.97;4.77;;;;;;;;;;4999006;28;20213;-78
2021/12/10 00:43:56;;;;;;;9.97;4.50;;;;;;;;;;4999507;28;20295;-78
2021/12/10 00:46:23;;;;;;;8.90;4.57;;;;;;;;;;5007680;28;20232;-78
2021/12/10 00:48:50;;;;;;;8.33;3.90;;;;;;;;;;5009269;28;20268;-78
2021/12/10 00:51:17;;;;;;;9.23;4.10;;;;;;;;;;5004212;28;20231;-78
2021/12/10 00:53:45;;;;;;;11.10;4.03;;;;;;;;;;4998358;28;20213;-78
2021/12/10 00:56:14;;;;;;;9.83;5.20;;;;;;;;;;4997652;28;20533;-78
2021/12/10 00:58:41;;;;;;;10.30;4.43;;;;;;;;;;4997857;28;20229;-77
2021/12/10 01:01:11;;;;;;;9.07;4.87;;;;;;;;;;4999699;28;20228;-78
2021/12/10 01:03:41;;;;;;;10.37;4.83;;;;;;;;;;4998873;28;20644;-78
2021/12/10 01:06:10;;;;;;;10.70;5.00;;;;;;;;;;5002085;28;20494;-78
2021/12/10 01:08:38;;;;;;;10.50;5.67;;;;;;;;;;5001382;28;20235;-78
2021/12/10 01:11:07;;;;;;;11.83;5.47;;;;;;;;;;5002462;28;20298;-78
2021/12/10 01:13:37;;;;;;;13.03;5.30;;;;;;;;;;4999970;28;20220;-78
2021/12/10 01:16:19;;;;;;;12.30;5.70;;;;;;;;;;5006315;28;20243;-78
2021/12/10 01:24:34;;;;;;;11.30;5.20;;;;;;;;;;5003100;28;20246;-77
2021/12/10 01:27:09;;;;;;;14.47;6.17;;;;;;;;;;4996269;28;20699;-77
2021/12/10 01:29:41;;;;;;;12.77;5.80;;;;;;;;;;5001060;28;20597;-77
2021/12/10 01:32:10;;;;;;;13.07;6.23;;;;;;;;;;5000511;28;20589;-77
2021/12/10 01:34:38;;;;;;;13.80;6.63;;;;;;;;;;4996245;28;20303;-78
2021/12/10 01:37:05;;;;;;;16.20;7.03;;;;;;;;;;5003256;28;20314;-77
2021/12/10 01:39:35;;;;;;;13.57;5.87;;;;;;;;;;5001015;28;20645;-77
2021/12/10 01:42:14;;;;;;;13.03;5.87;;;;;;;;;;5003711;28;20756;-76
2021/12/10 01:44:45;;;;;;;15.83;6.00;;;;;;;;;;5008380;28;20871;-77
2021/12/10 01:47:13;;;;;;;17.73;6.77;;;;;;;;;;5011751;28;20196;-78
2021/12/10 01:49:43;;;;;;;13.77;6.50;;;;;;;;;;5008164;28;20220;-77
2021/12/10 01:52:11;;;;;;;13.03;6.43;;;;;;;;;;5006184;28;20208;-78
2021/12/10 01:54:40;;;;;;;11.30;6.23;;;;;;;;;;5010618;28;20691;-78
2021/12/10 01:57:08;;;;;;;12.73;5.63;;;;;;;;;;5012140;28;20314;-78
2021/12/10 01:59:40;;;;;;;10.63;5.90;;;;;;;;;;5011650;28;20634;-77
2021/12/10 02:02:10;;;;;;;15.67;6.60;;;;;;;;;;5008263;28;20749;-77
2021/12/10 02:04:38;;;;;;;14.40;6.63;;;;;;;;;;5008830;28;20634;-78
2021/12/10 02:07:06;;;;;;;11.10;6.03;;;;;;;;;;5008779;28;20701;-78
2021/12/10 02:09:34;;;;;;;17.20;9.77;;;;;;;;;;5004645;28;20229;-78
2021/12/10 02:12:01;;;;;;;16.60;8.80;;;;;;;;;;5003152;28;20295;-77
2021/12/10 02:14:28;;;;;;;15.30;7.73;;;;;;;;;;5007009;28;20863;-78
2021/12/10 02:16:58;;;;;;;16.33;7.20;;;;;;;;;;5007017;28;20690;-78
2021/12/10 02:19:27;;;;;;;15.80;7.37;;;;;;;;;;5004148;28;20239;-77
2021/12/10 02:21:56;;;;;;;16.03;7.67;;;;;;;;;;5009177;28;20287;-78
2021/12/10 02:24:23;;;;;;;12.50;7.07;;;;;;;;;;5010350;28;20682;-78
2021/12/10 02:26:52;;;;;;;14.83;5.77;;;;;;;;;;5011459;28;20266;-78
2021/12/10 02:29:20;;;;;;;13.27;7.10;;;;;;;;;;5007445;28;20283;-78
2021/12/10 02:31:48;;;;;;;18.37;6.90;;;;;;;;;;5006459;28;20743;-79
2021/12/10 02:34:15;;;;;;;12.63;6.10;;;;;;;;;;5012777;28;20208;-78
2021/12/10 02:36:42;;;;;;;13.63;5.97;;;;;;;;;;5011132;28;20223;-79
2021/12/10 02:39:12;;;;;;;16.53;7.00;;;;;;;;;;5010907;28;20256;-78
2021/12/10 02:41:40;;;;;;;9.63;5.57;;;;;;;;;;5005263;28;20236;-78
2021/12/10 02:44:08;;;;;;;8.50;4.43;;;;;;;;;;5006522;28;20212;-79
2021/12/10 02:46:35;;;;;;;10.40;4.53;;;;;;;;;;5006951;28;20315;-79
2021/12/10 02:49:02;;;;;;;14.97;6.00;;;;;;;;;;5005862;28;20793;-78
2021/12/10 02:51:31;;;;;;;11.63;4.87;;;;;;;;;;5003471;28;20297;-78
2021/12/10 02:53:58;;;;;;;11.17;4.10;;;;;;;;;;5005176;28;20205;-78
2021/12/10 02:56:27;;;;;;;10.07;4.33;;;;;;;;;;5004894;28;20251;-78
2021/12/10 02:58:58;;;;;;;10.23;4.60;;;;;;;;;;5002926;28;20314;-79
2021/12/10 03:01:28;;;;;;;11.40;5.27;;;;;;;;;;5012230;28;20216;-78
2021/12/10 03:03:55;;;;;;;13.93;5.50;;;;;;;;;;5007594;28;20232;-79
2021/12/10 03:06:22;;;;;;;15.87;4.73;;;;;;;;;;5005743;28;20228;-78
2021/12/10 03:08:51;;;;;;;9.43;4.50;;;;;;;;;;5008239;28;20311;-77
2021/12/10 03:11:20;;;;;;;12.37;4.40;;;;;;;;;;5000948;28;20204;-78
2021/12/10 03:13:49;;;;;;;15.70;4.57;;;;;;;;;;5004170;28;20661;-78
2021/12/10 03:16:16;;;;;;;9.37;5.00;;;;;;;;;;5008629;28;20315;-78
2021/12/10 03:18:44;;;;;;;15.67;5.10;;;;;;;;;;5005388;28;20286;-77
2021/12/10 03:21:11;;;;;;;11.00;4.80;;;;;;;;;;5006991;28;20722;-78
2021/12/10 03:23:42;;;;;;;10.93;4.47;;;;;;;;;;5005266;28;20208;-77
2021/12/10 03:26:10;;;;;;;12.70;4.10;;;;;;;;;;4999964;28;20204;-77
2021/12/10 03:28:37;;;;;;;11.60;5.23;;;;;;;;;;4998598;28;20753;-77
2021/12/10 03:31:06;;;;;;;14.97;5.47;;;;;;;;;;5002530;28;20236;-78
2021/12/10 03:33:33;;;;;;;10.03;3.20;;;;;;;;;;5003293;28;20225;-77
2021/12/10 03:36:01;;;;;;;9.57;3.30;;;;;;;;;;5001597;28;20252;-76
2021/12/10 03:38:29;;;;;;;6.47;2.73;;;;;;;;;;4999582;28;20283;-77
2021/12/10 03:40:59;;;;;;;6.43;2.73;;;;;;;;;;5003976;28;20255;-78
2021/12/10 03:43:27;;;;;;;6.43;2.87;;;;;;;;;;5001868;28;20217;-78
2021/12/10 03:45:56;;;;;;;12.63;2.73;;;;;;;;;;5000170;28;20271;-79
2021/12/10 03:48:26;;;;;;;3.90;2.10;;;;;;;;;;5007068;28;20334;-78
2021/12/10 03:50:54;;;;;;;6.67;3.17;;;;;;;;;;5003527;28;20251;-78
2021/12/10 03:53:22;;;;;;;9.73;2.63;;;;;;;;;;4999062;28;20391;-77
2021/12/10 03:55:50;;;;;;;11.20;3.30;;;;;;;;;;5001501;28;20303;-77
2021/12/10 03:58:18;;;;;;;9.60;3.37;;;;;;;;;;4999905;28;20303;-77
2021/12/10 04:00:46;;;;;;;10.40;3.43;;;;;;;;;;5003055;28;20716;-77
2021/12/10 04:03:15;;;;;;;12.00;4.23;;;;;;;;;;5004845;28;20334;-76
2021/12/10 04:05:43;;;;;;;10.73;4.47;;;;;;;;;;5000937;28;20228;-77
2021/12/10 04:08:10;;;;;;;8.57;4.53;;;;;;;;;;5001141;28;20667;-76
2021/12/10 04:10:38;;;;;;;15.53;4.47;;;;;;;;;;5004164;28;20651;-77
2021/12/10 04:13:06;;;;;;;9.17;4.53;;;;;;;;;;5002121;28;20212;-77
2021/12/10 04:15:35;;;;;;;14.47;4.80;;;;;;;;;;5001600;28;20233;-78
2021/12/10 04:18:02;;;;;;;9.50;4.27;;;;;;;;;;5004121;28;20224;-77
2021/12/10 04:20:31;;;;;;;8.73;4.43;;;;;;;;;;4999930;28;20244;-77
2021/12/10 04:23:01;;;;;;;18.07;4.87;;;;;;;;;;5001506;28;20765;-77
2021/12/10 04:25:28;;;;;;;10.40;4.30;;;;;;;;;;4997013;28;20646;-76
2021/12/10 04:27:57;;;;;;;10.93;4.73;;;;;;;;;;5002984;28;20723;-77
2021/12/10 04:30:25;;;;;;;10.83;4.20;;;;;;;;;;5004165;28;20796;-78
2021/12/10 04:32:52;;;;;;;10.53;4.23;;;;;;;;;;5000933;28;20330;-76
2021/12/10 04:35:20;;;;;;;9.57;4.43;;;;;;;;;;5001105;28;20287;-76
2021/12/10 04:37:47;;;;;;;19.80;4.10;;;;;;;;;;4999913;28;20323;-76
2021/12/10 04:40:18;;;;;;;13.87;4.00;;;;;;;;;;4997102;28;20239;-77
2021/12/10 04:42:46;;;;;;;9.63;4.10;;;;;;;;;;5000721;28;20267;-77
2021/12/10 04:45:14;;;;;;;12.17;4.10;;;;;;;;;;5001722;28;20291;-77
2021/12/10 04:47:41;;;;;;;16.33;3.80;;;;;;;;;;4994703;28;20220;-77
2021/12/10 04:50:10;;;;;;;10.87;3.70;;;;;;;;;;5001461;28;20251;-77
2021/12/10 04:52:37;;;;;;;7.20;3.13;;;;;;;;;;5004091;28;20204;-77
2021/12/10 04:55:05;;;;;;;14.10;3.63;;;;;;;;;;5004095;28;20273;-77
2021/12/10 04:57:34;;;;;;;18.80;3.70;;;;;;;;;;5004358;28;20220;-77
2021/12/10 05:00:01;;;;;;;13.43;3.70;;;;;;;;;;5005195;28;20311;-77
2021/12/10 05:02:28;;;;;;;8.50;3.10;;;;;;;;;;4999876;28;20209;-77
2021/12/10 05:04:57;;;;;;;13.63;3.40;;;;;;;;;;5001889;28;20215;-78
2021/12/10 05:07:25;;;;;;;12.93;3.80;;;;;;;;;;4999034;28;20217;-77
2021/12/10 05:09:52;;;;;;;11.93;3.20;;;;;;;;;;5003233;28;20243;-77
2021/12/10 05:12:19;;;;;;;21.23;5.27;;;;;;;;;;4997441;28;20635;-77
2021/12/10 05:14:48;;;;;;;23.07;6.63;;;;;;;;;;5000663;28;20299;-77
2021/12/10 05:17:15;;;;;;;17.77;6.53;;;;;;;;;;5001088;28;20319;-77
2021/12/10 05:19:50;;;;;;;12.03;3.90;;;;;;;;;;5016052;28;20232;-79
2021/12/10 05:22:17;;;;;;;10.27;3.40;;;;;;;;;;5007240;28;20210;-77
2021/12/10 05:24:44;;;;;;;13.40;3.70;;;;;;;;;;5002246;28;20299;-77
2021/12/10 05:27:12;;;;;;;9.83;3.30;;;;;;;;;;5002099;28;20401;-77
2021/12/10 05:29:39;;;;;;;10.63;3.47;;;;;;;;;;5000259;28;20231;-77
2021/12/10 05:32:08;;;;;;;10.37;3.10;;;;;;;;;;4996125;28;20287;-77
2021/12/10 05:34:39;;;;;;;12.23;4.23;;;;;;;;;;5000567;28;20754;-77
2021/12/10 05:37:07;;;;;;;9.40;3.80;;;;;;;;;;4996947;28;20717;-78
2021/12/10 05:39:34;;;;;;;7.27;2.90;;;;;;;;;;4998057;28;20240;-78
2021/12/10 05:42:04;;;;;;;10.30;3.23;;;;;;;;;;5002905;28;20200;-77
2021/12/10 05:44:31;;;;;;;7.83;2.83;;;;;;;;;;5004529;28;20208;-80
2021/12/10 05:46:59;;;;;;;10.30;3.30;;;;;;;;;;5001101;28;20221;-77
2021/12/10 05:49:28;;;;;;;8.57;2.97;;;;;;;;;;4997857;28;20228;-79
2021/12/10 05:51:55;;;;;;;9.00;3.27;;;;;;;;;;4996192;28;20262;-79
2021/12/10 05:54:22;;;;;;;7.80;3.63;;;;;;;;;;5001668;28;20216;-78
2021/12/10 05:56:50;;;;;;;11.47;3.23;;;;;;;;;;4999726;28;20316;-78
2021/12/10 05:59:17;;;;;;;7.70;2.90;;;;;;;;;;5000909;28;20779;-78
2021/12/10 06:01:45;;;;;;;16.83;3.47;;;;;;;;;;5002870;28;20250;-78
2021/12/10 06:04:12;;;;;;;13.33;3.53;;;;;;;;;;5004163;28;20209;-76
2021/12/10 06:06:41;;;;;;;11.43;3.70;;;;;;;;;;5009545;28;20262;-75
2021/12/10 06:09:10;;;;;;;10.10;3.17;;;;;;;;;;5003311;28;20686;-78
2021/12/10 06:11:37;;;;;;;10.60;3.67;;;;;;;;;;4998652;28;20234;-76
2021/12/10 06:14:04;;;;;;;10.23;3.67;;;;;;;;;;5006175;28;20765;-78
2021/12/10 06:16:31;;;;;;;8.13;2.93;;;;;;;;;;5003362;28;20213;-78
2021/12/10 06:18:59;;;;;;;20.07;3.80;;;;;;;;;;4999719;28;20251;-78
2021/12/10 06:21:26;;;;;;;15.07;3.17;;;;;;;;;;5002844;28;20463;-78
2021/12/10 06:23:55;;;;;;;11.33;3.23;;;;;;;;;;5000229;28;20236;-77
2021/12/10 06:26:30;;;;;;;9.27;2.90;;;;;;;;;;5006941;28;20351;-78
2021/12/10 06:28:57;;;;;;;9.57;3.90;;;;;;;;;;5009310;28;20231;-78
2021/12/10 06:31:26;;;;;;;12.10;3.37;;;;;;;;;;5000933;28;20802;-77
2021/12/10 06:33:54;;;;;;;12.33;3.47;;;;;;;;;;4999488;28;20308;-77
2021/12/10 06:36:21;;;;;;;13.23;3.73;;;;;;;;;;5005911;28;20706;-78
2021/12/10 06:38:49;;;;;;;10.63;3.50;;;;;;;;;;5004193;28;20324;-78
2021/12/10 06:41:18;;;;;;;8.43;3.37;;;;;;;;;;5000968;28;20230;-78
2021/12/10 06:43:46;;;;;;;19.33;3.27;;;;;;;;;;5005103;28;20629;-78
2021/12/10 06:46:14;;;;;;;9.13;3.10;;;;;;;;;;5000998;28;20204;-78
2021/12/10 06:48:42;;;;;;;9.23;3.20;;;;;;;;;;4998964;28;20256;-78
2021/12/10 06:51:10;;;;;;;8.40;2.93;;;;;;;;;;5001440;28;20570;-78
2021/12/10 06:53:38;;;;;;;9.63;2.53;;;;;;;;;;5002764;28;20299;-78
2021/12/10 06:56:06;;;;;;;12.50;3.30;;;;;;;;;;4998498;28;20337;-78
2021/12/10 06:58:35;;;;;;;12.70;3.70;;;;;;;;;;5002688;28;20720;-78
2021/12/10 07:01:05;;;;;;;14.60;3.47;;;;;;;;;;5000208;28;20211;-78
2021/12/10 07:03:32;;;;;;;6.90;3.03;;;;;;;;;;5002744;28;20215;-78
2021/12/10 07:06:01;;;;;;;18.13;4.33;;;;;;;;;;5004367;28;20212;-77
2021/12/10 07:08:29;;;;;;;11.30;3.63;;;;;;;;;;5002610;28;20640;-77
2021/12/10 07:10:57;;;;;;;17.53;4.10;;;;;;;;;;5008515;28;20208;-78
2021/12/10 07:13:24;;;;;;;13.07;4.83;;;;;;;;;;5005367;28;20248;-78
2021/12/10 07:15:53;;;;;;;8.97;4.33;;;;;;;;;;5005583;28;20229;-77
2021/12/10 07:18:22;;;;;;;12.00;4.43;;;;;;;;;;5005153;28;20235;-78
2021/12/10 07:20:51;;;;;;;12.37;4.20;;;;;;;;;;5001515;28;20283;-78
2021/12/10 07:23:18;;;;;;;17.73;4.80;;;;;;;;;;5003518;28;20251;-78
2021/12/10 07:25:46;;;;;;;15.33;5.50;;;;;;;;;;5002816;28;20235;-78
2021/12/10 07:28:14;;;;;;;14.70;4.90;;;;;;;;;;5002694;28;20247;-79
2021/12/10 07:30:42;;;;;;;9.67;4.97;;;;;;;;;;5003696;28;20209;-78
2021/12/10 07:33:10;;;;;;;17.80;5.27;;;;;;;;;;5003802;28;20224;-79
2021/12/10 07:35:38;;;;;;;14.23;5.50;;;;;;;;;;5002401;28;20228;-79
2021/12/10 07:38:07;;;;;;;14.13;5.20;;;;;;;;;;5012888;28;20251;-78
2021/12/10 07:40:35;;;;;;;14.57;5.43;;;;;;;;;;5008496;28;20209;-78
2021/12/10 07:43:02;;;;;;;10.37;4.73;;;;;;;;;;5000770;28;20204;-78
2021/12/10 07:45:29;;;;;;;13.17;5.23;;;;;;;;;;5002710;28;20205;-78
2021/12/10 07:47:57;;;;;;;17.50;5.33;;;;;;;;;;4996734;28;20283;-78
2021/12/10 07:50:27;;;;;;;18.27;5.53;;;;;;;;;;4994566;28;20259;-79
2021/12/10 07:52:56;;;;;;;15.10;5.20;;;;;;;;;;4997672;28;20814;-78
2021/12/10 07:55:24;;;;;;;11.00;4.97;;;;;;;;;;4992112;28;20231;-78
2021/12/10 07:57:51;;;;;;;14.03;4.73;;;;;;;;;;4994557;28;20236;-78
2021/12/10 08:00:20;;;;;;;13.93;5.10;;;;;;;;;;4995864;28;20661;-78
2021/12/10 08:02:48;;;;;;;14.07;4.53;;;;;;;;;;4998713;28;20624;-79
2021/12/10 08:05:16;;;;;;;15.60;4.50;;;;;;;;;;4999834;28;20259;-75
2021/12/10 08:07:44;;;;;;;15.27;4.70;;;;;;;;;;4989470;28;20596;-76
2021/12/10 08:10:13;;;;;;;15.10;5.10;;;;;;;;;;4995151;28;20295;-77
2021/12/10 08:12:40;;;;;;;10.97;4.43;;;;;;;;;;4987157;28;20295;-76
2021/12/10 08:15:08;;;;;;;10.30;4.10;;;;;;;;;;4989155;28;20208;-77
2021/12/10 08:17:35;;;;;;;12.13;4.60;;;;;;;;;;4985665;28;20347;-78
2021/12/10 08:20:04;;;;;;;13.53;3.90;;;;;;;;;;4983617;28;20788;-77
2021/12/10 08:22:32;;;;;;;9.63;4.03;;;;;;;;;;4987551;28;20213;-77
2021/12/10 08:25:01;;;;;;;12.03;3.80;;;;;;;;;;4997752;28;20648;-77
2021/12/10 08:27:28;;;;;;;11.73;3.73;;;;;;;;;;4995941;28;20301;-77
2021/12/10 08:30:02;;;;;;;14.30;3.67;;;;;;;;;;4995790;28;20306;-77
2021/12/10 08:32:31;;;;;;;14.07;3.90;;;;;;;;;;5000009;28;20513;-77
2021/12/10 08:34:59;;;;;;;10.17;3.57;;;;;;;;;;4994690;28;20737;-77
2021/12/10 08:37:29;;;;;;;11.23;3.87;;;;;;;;;;4997809;28;20766;-77
2021/12/10 08:39:57;;;;;;;10.20;3.13;;;;;;;;;;4994660;28;20221;-77
2021/12/10 08:42:25;;;;;;;10.70;3.57;;;;;;;;;;4994312;28;20215;-77
2021/12/10 08:44:53;;;;;;;8.23;3.63;;;;;;;;;;5000123;28;20208;-78
2021/12/10 08:47:20;;;;;;;7.03;3.50;;;;;;;;;;5001040;28;20205;-77
2021/12/10 08:49:47;;;;;;;14.50;3.60;;;;;;;;;;4995511;28;20254;-77
2021/12/10 08:52:16;;;;;;;11.03;2.97;;;;;;;;;;4992949;28;20517;-77
2021/12/10 08:54:43;;;;;;;11.10;3.30;;;;;;;;;;4991054;28;20295;-77
2021/12/10 08:57:11;;;;;;;8.77;2.93;;;;;;;;;;4991895;28;20200;-77
2021/12/10 08:59:40;;;;;;;8.63;2.93;;;;;;;;;;4992967;28;20234;-77
2021/12/10 09:02:10;;;;;;;13.40;3.17;;;;;;;;;;4994481;28;20233;-77
2021/12/10 09:04:38;;;;;;;11.03;3.40;;;;;;;;;;4996620;28;20292;-77
2021/12/10 09:07:07;;;;;;;10.47;4.00;;;;;;;;;;4996097;28;20213;-77
2021/12/10 09:09:35;;;;;;;12.63;3.40;;;;;;;;;;5001981;28;20228;-77
2021/12/10 09:12:04;;;;;;;14.43;3.23;;;;;;;;;;4997843;28;20892;-77
2021/12/10 09:14:37;;;;;;;8.70;2.87;;;;;;;;;;5000823;28;20200;-78
2021/12/10 09:17:06;;;;;;;11.13;2.80;;;;;;;;;;5001000;28;20208;-78
2021/12/10 09:19:34;;;;;;;10.07;3.30;;;;;;;;;;4998105;28;20237;-79
2021/12/10 09:22:01;;;;;;;5.63;2.37;;;;;;;;;;4996844;28;20518;-78
2021/12/10 09:24:28;;;;;;;10.90;2.47;;;;;;;;;;4997046;28;20283;-79
2021/12/10 09:26:59;;;;;;;9.90;3.20;;;;;;;;;;4993494;28;20213;-78
2021/12/10 09:29:27;;;;;;;9.30;2.50;;;;;;;;;;4991126;28;20228;-78
2021/12/10 09:31:55;;;;;;;7.27;3.00;;;;;;;;;;4999124;28;20631;-78
2021/12/10 09:34:23;;;;;;;11.73;2.20;;;;;;;;;;4999609;28;20208;-78
2021/12/10 09:36:52;;;;;;;9.70;2.60;;;;;;;;;;4994790;28;20300;-77
2021/12/10 09:39:20;;;;;;;11.23;2.70;;;;;;;;;;5000425;28;20235;-78
2021/12/10 09:41:48;;;;;;;11.03;3.40;;;;;;;;;;4990979;28;20299;-78
2021/12/10 09:44:16;;;;;;;9.67;3.33;;;;;;;;;;5001956;28;20205;-78
2021/12/10 09:46:44;;;;;;;16.10;2.67;;;;;;;;;;5000793;28;20677;-78
2021/12/10 09:49:11;;;;;;;6.30;2.43;;;;;;;;;;5002964;28;20248;-78
2021/12/10 09:51:42;;;;;;;8.33;2.43;;;;;;;;;;5000547;28;20288;-78
2021/12/10 09:54:11;;;;;;;8.37;2.60;;;;;;;;;;5008745;28;20667;-78
2021/12/10 09:56:39;;;;;;;7.97;2.87;;;;;;;;;;5012280;28;21010;-77
2021/12/10 09:59:06;;;;;;;13.17;3.03;;;;;;;;;;4992479;28;20231;-78
2021/12/10 10:01:36;;;;;;;7.70;2.73;;;;;;;;;;4986956;28;20307;-78
2021/12/10 10:04:04;;;;;;;7.00;2.33;;;;;;;;;;4991885;28;20291;-78
2021/12/10 10:06:33;;;;;;;11.03;2.50;;;;;;;;;;4992501;28;20298;-77
2021/12/10 10:09:02;;;;;;;11.07;2.83;;;;;;;;;;4989865;28;20220;-78
2021/12/10 10:11:31;;;;;;;9.77;2.37;;;;;;;;;;4992148;28;20271;-78
2021/12/10 10:13:58;;;;;;;11.77;2.47;;;;;;;;;;5004095;28;20211;-80
2021/12/10 10:16:28;;;;;;;5.77;2.50;;;;;;;;;;5005060;28;20279;-80
2021/12/10 10:18:56;;;;;;;10.53;2.40;;;;;;;;;;5002998;28;20694;-80
2021/12/10 10:21:25;;;;;;;14.17;3.00;;;;;;;;;;5006049;28;20632;-80
2021/12/10 10:23:52;;;;;;;9.87;2.60;;;;;;;;;;5004290;28;20271;-81
2021/12/10 10:26:25;;;;;;;9.57;2.40;;;;;;;;;;5005904;28;20236;-81
2021/12/10 10:28:52;;;;;;;4.63;2.30;;;;;;;;;;5000686;28;20213;-80
2021/12/10 10:31:24;;;;;;;10.63;2.40;;;;;;;;;;4997974;28;20201;-81
2021/12/10 10:33:53;;;;;;;8.93;2.60;;;;;;;;;;5010459;28;20236;-79
2021/12/10 10:36:23;;;;;;;8.00;2.60;;;;;;;;;;5004453;28;20229;-80
2021/12/10 10:39:00;;;;;;;12.67;2.60;;;;;;;;;;5007362;28;20308;-80
2021/12/10 10:41:36;;;;;;;6.33;2.80;;;;;;;;;;5004965;28;20874;-80
2021/12/10 10:44:03;;;;;;;12.60;3.20;;;;;;;;;;5003452;28;20216;-79
2021/12/10 10:46:33;;;;;;;6.17;2.70;;;;;;;;;;5003349;28;20212;-80
2021/12/10 10:49:00;;;;;;;7.07;2.30;;;;;;;;;;5008868;28;20220;-80
2021/12/10 10:51:29;;;;;;;5.50;2.20;;;;;;;;;;5006776;28;20695;-80
2021/12/10 10:53:59;;;;;;;10.53;2.80;;;;;;;;;;5007085;28;20293;-79
2021/12/10 10:56:30;;;;;;;7.60;2.40;;;;;;;;;;5009576;28;20304;-80
2021/12/10 10:59:01;;;;;;;8.07;2.73;;;;;;;;;;5007543;28;20224;-80
2021/12/10 11:01:35;;;;;;;13.60;3.00;;;;;;;;;;5003506;28;20223;-80
2021/12/10 11:04:08;;;;;;;7.70;2.33;;;;;;;;;;5008480;28;20222;-80
2021/12/10 11:06:36;;;;;;;5.60;2.43;;;;;;;;;;5004713;28;20205;-79
2021/12/10 11:09:09;;;;;;;6.33;2.30;;;;;;;;;;5008777;28;20231;-80
2021/12/10 11:11:41;;;;;;;9.27;2.50;;;;;;;;;;5005478;28;20303;-80
2021/12/10 11:14:10;;;;;;;11.17;2.00;;;;;;;;;;5009333;28;20213;-79
2021/12/10 11:16:39;;;;;;;6.40;2.07;;;;;;;;;;5009452;28;20258;-81
2021/12/10 11:19:08;;;;;;;8.37;2.03;;;;;;;;;;5021351;28;20255;-80
2021/12/10 11:21:38;;;;;;;8.57;2.23;;;;;;;;;;5007742;28;20683;-80
2021/12/10 11:24:13;;;;;;;12.40;2.20;;;;;;;;;;5013802;28;20243;-81
2021/12/10 11:26:46;;;;;;;6.77;2.07;;;;;;;;;;5013090;28;20300;-79
2021/12/10 11:29:28;;;;;;;9.90;2.50;;;;;;;;;;5007350;28;20221;-80
2021/12/10 11:31:59;;;;;;;6.40;1.93;;;;;;;;;;5086085;22;20219;-81
2021/12/10 11:34:40;;;;;;;9.93;2.47;;;;;;;;;;5022388;28;20235;-80
2021/12/10 11:37:09;;;;;;;10.73;2.30;;;;;;;;;;5034944;28;20204;-81
2021/12/10 11:39:42;;;;;;;8.97;2.17;;;;;;;;;;5023333;28;20224;-82
2021/12/10 11:42:24;;;;;;;9.33;3.03;;;;;;;;;;5023276;28;20235;-82
2021/12/10 11:45:17;;;;;;;12.30;2.30;;;;;;;;;;5017365;28;20210;-80
2021/12/10 11:47:45;;;;;;;8.17;2.20;;;;;;;;;;5017882;28;20306;-80
2021/12/10 11:50:19;;;;;;;7.17;2.00;;;;;;;;;;5011142;28;20288;-80
2021/12/10 11:52:46;;;;;;;5.30;1.90;;;;;;;;;;5012576;28;20291;-80
2021/12/10 11:55:13;;;;;;;8.63;2.17;;;;;;;;;;5014999;28;20287;-80
2021/12/10 11:57:42;;;;;;;13.33;2.30;;;;;;;;;;5016119;28;20773;-78
2021/12/10 12:00:23;;;;;;;11.33;2.27;;;;;;;;;;5013767;28;20240;-83
2021/12/10 12:02:51;;;;;;;7.73;2.00;;;;;;;;;;5022195;28;20235;-83
2021/12/10 12:05:21;;;;;;;6.30;2.23;;;;;;;;;;5024559;28;20201;-83
2021/12/10 12:07:50;;;;;;;6.80;2.40;;;;;;;;;;5025772;28;20227;-83
2021/12/10 12:10:21;;;;;;;10.90;2.10;;;;;;;;;;5026699;28;20231;-83
2021/12/10 12:12:50;;;;;;;8.87;2.30;;;;;;;;;;5014191;28;20212;-84
2021/12/10 12:15:21;;;;;;;16.80;2.37;;;;;;;;;;5016598;28;20236;-84
2021/12/10 12:17:50;;;;;;;9.73;2.03;;;;;;;;;;5016808;28;20228;-84
2021/12/10 12:20:25;;;;;;;7.50;2.30;;;;;;;;;;5021719;28;20231;-83
2021/12/10 12:25:45;;;;;;;12.07;2.07;;;;;;;;;;5011750;28;20203;-83
2021/12/10 12:28:14;;;;;;;9.03;2.40;;;;;;;;;;5014921;28;20701;-83
2021/12/10 12:30:53;;;;;;;10.20;2.30;;;;;;;;;;5018131;28;20208;-82
2021/12/10 12:33:21;;;;;;;9.50;2.70;;;;;;;;;;5015564;28;20624;-83
2021/12/10 12:35:48;;;;;;;5.80;1.90;;;;;;;;;;5016615;28;20250;-83
2021/12/10 12:38:17;;;;;;;10.07;2.33;;;;;;;;;;5018014;28;20311;-83
2021/12/10 12:40:45;;;;;;;6.23;2.00;;;;;;;;;;5013458;28;20283;-83
2021/12/10 12:43:13;;;;;;;4.63;2.20;;;;;;;;;;5014252;28;20270;-83
2021/12/10 12:45:43;;;;;;;9.53;2.27;;;;;;;;;;5014420;28;20258;-83
2021/12/10 12:48:14;;;;;;;5.00;1.90;;;;;;;;;;5021214;28;20232;-84
2021/12/10 12:50:43;;;;;;;7.63;2.93;;;;;;;;;;5015331;28;20291;-84
2021/12/10 12:53:12;;;;;;;8.73;2.37;;;;;;;;;;5021632;28;20224;-84
2021/12/10 12:55:50;;;;;;;8.37;2.40;;;;;;;;;;5020377;28;20241;-84
2021/12/10 12:58:22;;;;;;;5.33;2.00;;;;;;;;;;5030171;28;20216;-84
2021/12/10 13:01:40;;;;;;;;;;;;;;;;;;;;;
2021/12/10 13:04:20;;;;;;;10.90;2.70;;;;;;;;;;5024166;28;20624;-82
2021/12/10 13:06:52;;;;;;;6.97;2.20;;;;;;;;;;5023661;28;20227;-83
2021/12/10 13:09:20;;;;;;;11.23;2.90;;;;;;;;;;5022228;28;20220;-82
2021/12/10 13:12:00;;;;;;;9.07;2.80;;;;;;;;;;5023896;28;20236;-83
2021/12/10 13:14:35;;;;;;;8.13;2.40;;;;;;;;;;5018975;28;20266;-83
2021/12/10 13:17:11;;;;;;;8.60;3.53;;;;;;;;;;5021368;28;20203;-83
2021/12/10 13:19:40;;;;;;;11.73;2.50;;;;;;;;;;5015391;28;20260;-83
2021/12/10 13:22:08;;;;;;;8.80;3.10;;;;;;;;;;5018504;28;20625;-83
2021/12/10 13:24:37;;;;;;;9.13;3.07;;;;;;;;;;5020388;28;20291;-82
2021/12/10 13:27:05;;;;;;;8.37;3.10;;;;;;;;;;5020331;28;20270;-82
2021/12/10 13:29:33;;;;;;;8.67;3.00;;;;;;;;;;5021054;28;20275;-81
2021/12/10 13:32:14;;;;;;;9.40;3.70;;;;;;;;;;5025612;28;20227;-82
2021/12/10 13:34:45;;;;;;;10.53;2.50;;;;;;;;;;5018381;28;20207;-80
2021/12/10 13:37:15;;;;;;;11.40;3.80;;;;;;;;;;5034864;28;20207;-80
2021/12/10 13:39:43;;;;;;;5.87;2.70;;;;;;;;;;5017788;28;20295;-78
2021/12/10 13:42:11;;;;;;;9.40;3.00;;;;;;;;;;5016277;28;20234;-78
2021/12/10 13:44:44;;;;;;;11.67;2.80;;;;;;;;;;5013967;28;20227;-79
2021/12/10 13:47:22;;;;;;;6.70;2.83;;;;;;;;;;5013820;28;20238;-80
2021/12/10 13:49:52;;;;;;;9.40;3.20;;;;;;;;;;5029634;28;20572;-81
2021/12/10 13:52:45;;;;;;;13.90;3.03;;;;;;;;;;5036440;28;20234;-78
2021/12/10 13:55:20;;;;;;;6.57;2.27;;;;;;;;;;5020683;28;20200;-79
2021/12/10 13:58:07;;;;;;;10.87;2.40;;;;;;;;;;5019481;28;20224;-78
2021/12/10 14:00:34;;;;;;;16.87;3.03;;;;;;;;;;5013815;28;20313;-79
2021/12/10 14:03:12;;;;;;;8.43;2.23;;;;;;;;;;5024398;28;20220;-79
2021/12/10 14:05:42;;;;;;;6.03;2.50;;;;;;;;;;5021455;28;20204;-79
2021/12/10 14:08:14;;;;;;;7.63;2.27;;;;;;;;;;5019731;28;20248;-77
2021/12/10 14:10:43;;;;;;;7.93;2.30;;;;;;;;;;5012673;28;20585;-78
2021/12/10 14:13:12;;;;;;;8.43;2.40;;;;;;;;;;5010222;28;20200;-78
2021/12/10 14:15:45;;;;;;;8.07;2.57;;;;;;;;;;5015774;28;20278;-78
2021/12/10 14:18:15;;;;;;;7.60;2.20;;;;;;;;;;5015865;28;20348;-79
2021/12/10 14:20:45;;;;;;;8.20;2.70;;;;;;;;;;5017193;28;20259;-77
2021/12/10 14:23:18;;;;;;;8.63;2.50;;;;;;;;;;5019911;28;20697;-79
2021/12/10 14:25:50;;;;;;;12.87;3.03;;;;;;;;;;5018552;28;20290;-78
2021/12/10 14:28:19;;;;;;;6.97;2.27;;;;;;;;;;5018419;28;20629;-79
2021/12/10 14:30:48;;;;;;;7.50;2.97;;;;;;;;;;5018230;28;20204;-79
2021/12/10 14:33:18;;;;;;;7.93;2.80;;;;;;;;;;5019115;28;20630;-79
2021/12/10 14:35:48;;;;;;;7.27;2.90;;;;;;;;;;5018957;28;20286;-79
2021/12/10 14:38:16;;;;;;;10.20;3.37;;;;;;;;;;5013611;28;20311;-79
2021/12/10 14:40:48;;;;;;;12.53;4.73;;;;;;;;;;5012462;28;20319;-79
2021/12/10 14:43:17;;;;;;;6.40;3.20;;;;;;;;;;5019370;28;20232;-78
2021/12/10 14:46:12;;;;;;;8.70;3.03;;;;;;;;;;5019955;28;20204;-79
2021/12/10 14:48:41;;;;;;;6.57;2.70;;;;;;;;;;5017380;28;20312;-79
2021/12/10 14:51:12;;;;;;;6.33;3.13;;;;;;;;;;5023287;28;20314;-79
2021/12/10 14:53:41;;;;;;;11.03;4.03;;;;;;;;;;5032958;28;20575;-80
2021/12/10 14:56:32;;;;;;;11.20;3.33;;;;;;;;;;5019698;28;20246;-80
2021/12/10 14:59:04;;;;;;;10.20;2.73;;;;;;;;;;5010067;28;20246;-79